Time;durP1;ratioP1;P1;durP2;ratioP2;P2;SDS_P1;SDS_P2;PMS_P1;PMS_P2;Temp;Humidity;BMP_temperature;BMP_pressure;BME280_temperature;BME280_humidity;BME280_pressure;Samples;Min_cycle;Max_cycle;Signal;HPM_P1;HPM_P2
2022/12/17 13:07:55;;;;;;;46.97;21.37;;;;;;;-0.92;100.00;101540.36;3493525;83;29089;-83
2022/12/17 13:12:56;;;;;;;;;;;;;;;-0.87;100.00;101552.52;3485392;83;99377;-83
2022/12/17 13:18:34;;;;;;;41.77;20.75;;;;;;;-0.86;100.00;101553.59;3476981;83;33031;-83
2022/12/17 13:23:38;;;;;;;44.80;20.83;;;;;;;-0.79;100.00;101561.40;3450195;82;99193;-82
2022/12/17 13:28:39;;;;;;;45.80;20.03;;;;;;;-0.84;100.00;101567.64;3456089;84;26157;-82
2022/12/17 13:34:28;;;;;;;44.47;19.17;;;;;;;-0.84;100.00;101575.74;3453075;84;98984;-81
2022/12/17 13:39:43;;;;;;;46.58;21.30;;;;;;;-0.87;100.00;101579.53;3449345;84;34467;-82
2022/12/17 13:44:46;;;;;;;44.70;20.75;;;;;;;-0.84;100.00;101591.95;3444206;83;98682;-83
2022/12/17 13:49:55;;;;;;;46.73;21.13;;;;;;;-0.81;100.00;101596.01;3457935;84;31025;-83
2022/12/17 13:55:09;;;;;;;56.57;23.93;;;;;;;-0.80;100.00;101599.80;3449960;84;99097;-82
2022/12/17 14:00:27;;;;;;;49.97;21.93;;;;;;;-0.80;100.00;101599.80;3458563;84;29088;-82
2022/12/17 14:05:39;;;;;;;50.92;22.65;;;;;;;-0.79;100.00;101603.29;3452334;82;98825;-83
2022/12/17 14:10:50;;;;;;;50.07;22.33;;;;;;;-0.82;100.00;101607.34;3460091;84;30119;-82
2022/12/17 14:15:51;;;;;;;47.30;22.90;;;;;;;-0.82;100.00;101622.21;3452814;83;98668;-82
2022/12/17 14:20:55;;;;;;;48.60;22.13;;;;;;;-0.83;100.00;101634.67;3493090;83;32421;-83
2022/12/17 14:25:56;;;;;;;47.97;22.17;;;;;;;-0.83;100.00;101639.52;3489560;83;26308;-82
2022/12/17 14:31:19;;;;;;;52.60;23.20;;;;;;;-0.84;100.00;101650.59;3484142;82;99116;-83
2022/12/17 14:36:25;;;;;;;48.30;21.02;;;;;;;-0.85;100.00;101653.03;3487194;83;33050;-83
2022/12/17 14:46:47;;;;;;;42.07;19.00;;;;;;;-0.93;100.00;101667.89;3492510;83;28183;-81
2022/12/17 14:51:49;;;;;;;47.80;24.90;;;;;;;-0.98;100.00;101675.20;3462129;82;99134;-82
2022/12/17 14:56:49;;;;;;;40.57;19.57;;;;;;;-1.00;100.00;101674.12;3491857;83;32438;-80
2022/12/17 15:01:52;;;;;;;45.40;21.27;;;;;;;-1.00;100.00;101679.52;3489242;82;99323;-82
2022/12/17 15:06:54;;;;;;;41.50;20.50;;;;;;;-0.97;100.00;101684.92;3493759;83;28103;-81
2022/12/17 15:11:56;;;;;;;45.60;25.27;;;;;;;-1.00;100.00;101679.52;3469286;83;99128;-82
2022/12/17 15:16:58;;;;;;;40.30;19.07;;;;;;;-1.01;100.00;101689.23;3494702;83;33341;-83
2022/12/17 15:21:59;;;;;;;45.63;21.67;;;;;;;-1.01;100.00;101689.23;3503330;82;99123;-83
2022/12/17 15:27:00;;;;;;;42.90;19.43;;;;;;;-1.02;100.00;101691.67;3505269;83;32963;-82
2022/12/17 15:32:01;;;;;;;42.60;18.27;;;;;;;-1.12;100.00;101692.48;3499393;83;99168;-81
2022/12/17 15:37:02;;;;;;;45.73;21.03;;;;;;;-1.10;100.00;101713.84;3510067;83;32425;-81
2022/12/17 15:47:22;;;;;;;43.58;17.90;;;;;;;-1.16;100.00;101712.22;3502222;83;32016;-81
2022/12/17 15:52:24;;;;;;;39.13;17.03;;;;;;;-1.20;100.00;101719.22;3480248;82;99504;-81
2022/12/17 15:57:25;;;;;;;34.97;16.33;;;;;;;-1.19;100.00;101719.48;3509877;82;26446;-81
2022/12/17 16:02:29;;;;;;;37.50;18.87;;;;;;;-1.24;100.00;101730.28;3502746;82;99208;-82
2022/12/17 16:07:30;;;;;;;39.33;16.73;;;;;;;-1.25;100.00;101730.84;3506367;82;30132;-81
2022/12/17 16:12:32;;;;;;;37.27;16.00;;;;;;;-1.24;100.00;101737.03;3501264;82;99098;-82
2022/12/17 16:17:34;;;;;;;39.97;16.23;;;;;;;-1.27;100.00;101735.67;3508840;82;28122;-82
2022/12/17 16:22:36;;;;;;;31.77;14.53;;;;;;;-1.29;100.00;101743.77;3501474;82;99436;-83
2022/12/17 16:27:38;;;;;;;33.13;15.93;;;;;;;-1.29;100.00;101746.47;3488727;82;27049;-82
2022/12/17 16:32:39;;;;;;;41.15;17.45;;;;;;;-1.36;100.00;101748.09;3500659;82;99167;-83
2022/12/17 16:37:40;;;;;;;38.83;17.63;;;;;;;-1.39;100.00;101764.81;3507152;83;32608;-83
2022/12/17 16:42:41;;;;;;;45.87;19.50;;;;;;;-1.37;100.00;101757.25;3482328;82;99050;-84
2022/12/17 16:47:42;;;;;;;69.70;28.43;;;;;;;-1.40;100.00;101765.89;3505696;83;33021;-83
2022/12/17 16:52:42;;;;;;;38.60;17.50;;;;;;;-1.43;100.00;101767.77;3504428;83;99433;-80
2022/12/17 16:57:43;;;;;;;43.40;17.53;;;;;;;-1.45;100.00;101772.63;3506873;83;33014;-81
2022/12/17 17:02:44;;;;;;;35.70;17.00;;;;;;;-1.51;100.00;101771.52;3498913;82;99353;-81
2022/12/17 17:07:45;;;;;;;39.73;16.27;;;;;;;-1.52;99.98;101783.39;3507006;83;32468;-82
2022/12/17 17:12:46;;;;;;;36.63;15.08;;;;;;;-1.57;99.94;101788.25;3499070;83;99110;-82
2022/12/17 17:17:47;;;;;;;41.57;17.80;;;;;;;-1.59;100.00;101788.23;3501270;82;27540;-82
2022/12/17 17:22:47;;;;;;;36.63;17.73;;;;;;;-1.60;100.00;101804.95;3463010;82;99257;-82
2022/12/17 17:27:49;;;;;;;36.13;16.33;;;;;;;-1.61;100.00;101811.95;3466371;84;26532;-81
2022/12/17 17:32:49;;;;;;;40.43;18.00;;;;;;;-1.69;100.00;101811.12;3458492;82;98975;-82
2022/12/17 17:37:50;;;;;;;37.10;16.63;;;;;;;-1.70;100.00;101818.40;3466990;84;26471;-81
2022/12/17 17:42:51;;;;;;;36.30;15.70;;;;;;;-1.73;100.00;101814.89;3458766;83;99535;-80
2022/12/17 17:47:52;;;;;;;33.63;15.63;;;;;;;-1.73;100.00;101832.43;3466787;84;26113;-81
2022/12/17 17:52:53;;;;;;;43.27;17.47;;;;;;;-1.76;100.00;101837.55;3464836;84;99194;-81
2022/12/17 17:57:54;;;;;;;40.17;16.90;;;;;;;-1.80;100.00;101839.12;3469297;84;25966;-80
2022/12/17 18:02:55;;;;;;;38.37;16.93;;;;;;;-1.83;100.00;101848.56;3465164;82;99410;-81
2022/12/17 18:07:55;;;;;;;38.13;16.93;;;;;;;-1.82;100.00;101862.32;3470156;83;33198;-81
2022/12/17 18:18:15;;;;;;;45.07;18.93;;;;;;;-1.86;100.00;101858.51;3471331;84;26332;-81
2022/12/17 18:23:16;;;;;;;37.20;17.83;;;;;;;-1.88;100.00;101861.19;3452525;83;99481;-81
2022/12/17 18:28:17;;;;;;;36.07;15.97;;;;;;;-1.91;100.00;101870.62;3457470;84;33990;-81
2022/12/17 18:33:18;;;;;;;41.40;19.17;;;;;;;-1.91;100.00;101884.66;3452472;84;99338;-81
2022/12/17 18:38:19;;;;;;;44.13;19.17;;;;;;;-1.90;100.00;101904.64;3455048;84;33010;-81
2022/12/17 18:43:22;;;;;;;37.55;18.17;;;;;;;-1.90;100.00;101902.47;3450331;84;99082;-80
2022/12/17 18:48:23;;;;;;;48.83;19.53;;;;;;;-1.94;100.00;101906.22;3448406;84;33239;-80
2022/12/17 18:53:24;;;;;;;48.68;22.77;;;;;;;-1.93;100.00;101909.72;3452773;84;99040;-81
2022/12/17 18:58:25;;;;;;;38.37;16.30;;;;;;;-1.95;100.00;101905.13;3458333;84;33170;-81
2022/12/17 19:03:25;;;;;;;40.43;16.70;;;;;;;-1.95;100.00;101920.79;3447551;84;99447;-81
2022/12/17 19:08:26;;;;;;;37.23;14.73;;;;;;;-1.97;100.00;101924.27;3458371;84;31373;-82
2022/12/17 19:13:27;;;;;;;39.57;17.20;;;;;;;-1.95;100.00;101932.93;3454041;84;99314;-82
2022/12/17 19:18:28;;;;;;;40.37;17.03;;;;;;;-1.93;100.00;101936.17;3461816;84;26201;-82
2022/12/17 19:23:29;;;;;;;42.83;17.73;;;;;;;-1.97;100.00;101942.35;3448615;82;99074;-82
2022/12/17 19:28:30;;;;;;;41.97;19.03;;;;;;;-1.98;100.00;101956.36;3458646;84;32164;-82
2022/12/17 19:33:30;;;;;;;40.20;18.93;;;;;;;-1.98;100.00;101955.02;3451944;82;99267;-83
2022/12/17 19:38:32;;;;;;;34.87;14.60;;;;;;;-2.00;100.00;101959.03;3458748;84;32880;-83
2022/12/17 19:43:34;;;;;;;34.63;14.47;;;;;;;-2.03;100.00;101959.56;3452892;83;99492;-83
2022/12/17 19:48:39;;;;;;;38.77;16.27;;;;;;;-2.05;100.00;101954.95;3457978;84;31673;-82
2022/12/17 19:53:42;;;;;;;37.77;17.40;;;;;;;-2.07;100.00;101962.49;3449942;84;99422;-81
2022/12/17 19:58:45;;;;;;;38.73;15.37;;;;;;;-2.06;100.00;101964.11;3457780;84;25827;-82
2022/12/17 20:03:47;;;;;;;40.17;16.40;;;;;;;-2.10;100.00;101968.38;3455768;84;99157;-82
2022/12/17 20:08:49;;;;;;;40.70;16.77;;;;;;;-2.14;100.00;101968.64;3460446;84;26333;-82
2022/12/17 20:13:58;;;;;;;47.73;19.67;;;;;;;-2.13;100.00;101975.66;3454770;84;99347;-82
2022/12/17 20:19:01;;;;;;;52.10;20.90;;;;;;;-2.15;100.00;101977.77;3460733;83;26175;-82
2022/12/17 20:24:02;;;;;;;48.65;19.48;;;;;;;-2.15;100.00;101985.86;3499924;82;99249;-81
2022/12/17 20:29:04;;;;;;;51.77;19.70;;;;;;;-2.17;100.00;101991.53;3487066;84;32885;-82
2022/12/17 20:34:08;;;;;;;57.70;21.23;;;;;;;-2.23;100.00;102000.65;3499005;83;99042;-83
2022/12/17 20:39:10;;;;;;;59.05;22.70;;;;;;;-2.27;100.00;102004.08;3486152;83;33090;-81
2022/12/17 20:44:13;;;;;;;59.05;21.70;;;;;;;-2.31;100.00;102007.83;3501571;82;99399;-82
2022/12/17 20:49:14;;;;;;;68.35;24.05;;;;;;;-2.37;100.00;102014.76;3509318;83;33036;-81
2022/12/17 20:54:15;;;;;;;49.33;21.07;;;;;;;-2.44;100.00;102018.19;3499679;82;99205;-81
2022/12/17 20:59:17;;;;;;;52.93;20.77;;;;;;;-2.48;100.00;102017.89;3503303;82;31861;-82
2022/12/17 21:04:18;;;;;;;49.30;18.27;;;;;;;-2.52;100.00;102026.73;3483769;83;99252;-82
2022/12/17 21:09:21;;;;;;;51.10;20.90;;;;;;;-2.53;100.00;102029.95;3503962;83;31544;-82
2022/12/17 21:14:22;;;;;;;52.37;19.30;;;;;;;-2.59;100.00;102040.39;3503015;82;99080;-82
2022/12/17 21:19:23;;;;;;;49.77;19.37;;;;;;;-2.68;100.00;102047.28;3505203;83;31719;-82
2022/12/17 21:24:24;;;;;;;55.60;20.33;;;;;;;-2.69;100.00;102063.17;3502272;83;99083;-82
2022/12/17 21:29:24;;;;;;;56.63;20.60;;;;;;;-2.71;100.00;102062.61;3513064;82;31680;-82
2022/12/17 21:34:28;;;;;;;50.13;20.57;;;;;;;-2.71;100.00;102057.74;3496949;83;98968;-82
2022/12/17 21:39:28;;;;;;;52.57;22.73;;;;;;;-2.75;100.00;102059.30;3508616;83;31565;-83
2022/12/17 21:44:29;;;;;;;50.28;20.70;;;;;;;-2.83;100.00;102068.66;3498991;83;98920;-83
2022/12/17 21:49:30;;;;;;;54.60;20.23;;;;;;;-2.84;100.00;102058.92;3490462;83;32082;-83
2022/12/17 21:54:31;;;;;;;52.63;20.07;;;;;;;-2.87;100.00;102079.64;3501943;82;99107;-83
2022/12/17 21:59:32;;;;;;;54.83;21.80;;;;;;;-2.93;100.00;102097.31;3499565;84;32236;-82
2022/12/17 22:04:33;;;;;;;50.50;21.20;;;;;;;-2.95;100.00;102100.80;3492580;82;99100;-82
2022/12/17 22:09:34;;;;;;;56.03;20.50;;;;;;;-2.96;100.00;102103.21;3508991;82;28873;-82
2022/12/17 22:14:35;;;;;;;59.77;23.67;;;;;;;-3.00;100.00;102102.86;3499529;82;99125;-83
2022/12/17 22:19:35;;;;;;;58.07;25.77;;;;;;;-3.11;100.00;102107.02;3510659;82;26193;-83
2022/12/17 22:24:37;;;;;;;50.57;21.97;;;;;;;-3.13;100.00;102115.33;3487948;82;99044;-81
2022/12/17 22:34:57;;;;;;;58.40;20.70;;;;;;;-3.20;100.00;102123.28;3488460;83;98962;-82
2022/12/17 22:39:58;;;;;;;51.90;20.37;;;;;;;-3.24;100.00;102120.79;3462850;83;35879;-83
2022/12/17 22:44:58;;;;;;;56.67;20.73;;;;;;;-3.36;100.00;102133.52;3488455;83;99130;-81
2022/12/17 22:49:59;;;;;;;56.00;21.23;;;;;;;-3.43;100.00;102143.12;3495217;83;35381;-82
2022/12/17 22:55:00;;;;;;;56.43;20.60;;;;;;;-3.51;100.00;102142.67;3490278;82;99130;-81
2022/12/17 23:00:01;;;;;;;54.57;19.30;;;;;;;-3.67;100.00;102150.21;3496431;83;36216;-82
2022/12/17 23:05:01;;;;;;;52.37;19.43;;;;;;;-3.74;100.00;102154.90;3491272;83;99115;-81
2022/12/17 23:10:04;;;;;;;55.97;19.80;;;;;;;-3.79;100.00;102154.29;3496902;83;34859;-82
2022/12/17 23:15:06;;;;;;;58.33;19.27;;;;;;;-3.85;100.00;102148.53;3493305;82;99144;-82
2022/12/17 23:20:08;;;;;;;67.27;26.13;;;;;;;-3.86;100.00;102146.07;3496968;83;34855;-82
2022/12/17 23:25:10;;;;;;;73.30;27.93;;;;;;;-3.97;100.00;102155.83;3490816;82;99203;-82
2022/12/17 23:30:13;;;;;;;54.97;21.10;;;;;;;-4.07;100.00;102158.83;3496536;83;35091;-81
2022/12/17 23:35:14;;;;;;;51.27;20.87;;;;;;;-4.14;100.00;102164.33;3487212;82;99197;-81
2022/12/17 23:40:15;;;;;;;54.53;20.03;;;;;;;-4.15;100.00;102178.03;3497406;83;34815;-82
2022/12/17 23:45:16;;;;;;;61.10;21.57;;;;;;;-4.13;100.00;102176.75;3491073;82;98975;-82
2022/12/17 23:50:17;;;;;;;62.17;22.90;;;;;;;-4.15;100.00;102190.13;3495949;83;34840;-82
2022/12/17 23:55:18;;;;;;;64.07;22.63;;;;;;;-4.18;100.00;102188.73;3491272;82;99119;-82
